Stena Europe — VSTA3 — position and weather

sailwx.info

Track history (hours):
 
Tides and Currents Weather Stations Pressure Air Temp Water Temp Dewpoint Dewpoint Depression Visibility Wind Speed Wind Dir Waves Ship Positions

Stena Europe

Operator: Stena Line

Last reported at 2017-Nov-22 22:02 UTC. Time now 2017-Nov-23 00:22 UTC.
Position N 52°12' W 005°59'.

Length 149 m; draft 6 m.

Type: Passenger vessel. MMSI: 235004539.

Date/timePositionNaut miles runAvg speedWind from/ knotsBaromVisibWave heightAir tempDewpointWater temp
2017-Nov-22 22:02N 52°12' W 005°59'016.3
2017-Nov-22 22:00N 52°12' W 005°60'816.0
2017-Nov-22 21:30N 52°14' W 006°12'510.0
2017-Nov-22 21:00N 52°15' W 006°20'0 0.0
2017-Nov-22 20:31N 52°15' W 006°20'0 0.0
2017-Nov-22 20:01N 52°15' W 006°20'0 0.0
2017-Nov-22 19:31N 52°15' W 006°20'  
2017-Nov-19 19:33N 52°09' W 005°37'218.0
2017-Nov-19 19:28N 52°10' W 005°39'818.0
2017-Nov-19 19:00N 52°10' W 005°52'918.2
2017-Nov-19 18:31N 52°13' W 006°07'817.0
2017-Nov-19 18:00N 52°16' W 006°20'0 0.8
2017-Nov-19 17:31N 52°15' W 006°20'0 0.0
2017-Nov-19 17:01N 52°15' W 006°20'0 0.0
2017-Nov-19 16:30N 52°15' W 006°20'1 2.7
2017-Nov-19 16:01N 52°15' W 006°18'917.4
2017-Nov-19 15:31N 52°13' W 006°05'918.1
2017-Nov-19 15:01N 52°10' W 005°50'1 0.2
2017-Nov-19 09:07N 52°10' W 005°48'218.2
2017-Nov-19 08:59N 52°10' W 005°52'918.2
2017-Nov-19 08:30N 52°13' W 006°06'917.2
2017-Nov-19 08:00N 52°16' W 006°19'1 1.8
2017-Nov-19 07:30N 52°15' W 006°20'0 0.0
2017-Nov-19 07:00N 52°15' W 006°20'0 0.0
2017-Nov-19 06:31N 52°15' W 006°20'0 0.0
2017-Nov-19 06:00N 52°15' W 006°20'0 0.0
2017-Nov-19 05:30N 52°15' W 006°20'0 0.0
2017-Nov-19 05:00N 52°15' W 006°20'0 0.0
2017-Nov-19 04:30N 52°15' W 006°20'0 0.1
2017-Nov-19 04:01N 52°15' W 006°20'510.4
2017-Nov-19 03:30N 52°14' W 006°12'714.8
2017-Nov-19 03:00N 52°12' W 006°01'714.1
2017-Nov-19 02:30N 52°12' W 005°49'713.1
2017-Nov-19 01:58N 52°09' W 005°39'1 1.4
2017-Nov-19 01:30N 52°09' W 005°40'2 0.4
2017-Nov-18 19:42N 52°08' W 005°37'317.1
2017-Nov-18 19:30N 52°09' W 005°41'917.4
2017-Nov-18 19:00N 52°11' W 005°55'917.2
2017-Nov-18 18:30N 52°13' W 006°09'714.6
2017-Nov-18 18:00N 52°15' W 006°20'0 0.2
2017-Nov-18 17:30N 52°15' W 006°20'0 0.0
2017-Nov-18 17:00N 52°15' W 006°20'0 0.0
2017-Nov-18 16:30N 52°15' W 006°20'2 4.6
2017-Nov-18 16:01N 52°15' W 006°17'917.2
2017-Nov-18 15:31N 52°13' W 006°03'917.7
2017-Nov-18 15:01N 52°11' W 005°49'5 0.8
2017-Nov-18 08:55N 52°11' W 005°56'717.5
2017-Nov-18 08:30N 52°13' W 006°08'816.3
2017-Nov-18 08:01N 52°16' W 006°20'0 0.6
2017-Nov-18 07:30N 52°15' W 006°20'0 0.0
2017-Nov-18 07:00N 52°15' W 006°20'0 0.0
2017-Nov-18 06:30N 52°15' W 006°20'0 0.0
2017-Nov-18 06:00N 52°15' W 006°20'0 0.0
2017-Nov-18 05:30N 52°15' W 006°20'0 0.0
2017-Nov-18 05:00N 52°15' W 006°20'0 0.0
2017-Nov-18 04:30N 52°15' W 006°20'0 0.2
2017-Nov-18 04:00N 52°15' W 006°20'612.0
2017-Nov-18 03:30N 52°14' W 006°11'714.4
2017-Nov-18 03:00N 52°11' W 005°60'713.4
2017-Nov-18 02:30N 52°09' W 005°50'2 4.6
2017-Nov-18 02:00N 52°11' W 005°52'714.2
2017-Nov-18 01:30N 52°09' W 005°41'7 1.1
2017-Nov-17 19:07N 52°10' W 005°52'217.7
2017-Nov-17 19:00N 52°11' W 005°55'917.7
2017-Nov-17 18:30N 52°13' W 006°09'714.3
2017-Nov-17 18:00N 52°15' W 006°20'0 0.0
2017-Nov-17 17:30N 52°15' W 006°20'0 0.0
2017-Nov-17 17:00N 52°15' W 006°20'0 0.0
2017-Nov-17 16:30N 52°15' W 006°20'4 7.2
2017-Nov-17 16:00N 52°14' W 006°15'917.1
2017-Nov-17 15:30N 52°12' W 006°01'917.3
2017-Nov-17 15:00N 52°10' W 005°47'0 0.1
2017-Nov-17 09:09N 52°10' W 005°48'917.9
2017-Nov-17 08:39N 52°12' W 006°02'317.8
2017-Nov-17 08:31N 52°13' W 006°05'917.3
2017-Nov-17 08:00N 52°16' W 006°19'1 1.7
2017-Nov-17 07:30N 52°15' W 006°20'0 0.0
2017-Nov-17 07:00N 52°15' W 006°20'0 0.0
2017-Nov-17 06:30N 52°15' W 006°20'0 0.0
2017-Nov-17 06:00N 52°15' W 006°20'0 0.0
2017-Nov-17 05:30N 52°15' W 006°20'0 0.0
2017-Nov-17 05:00N 52°15' W 006°20'0 0.0
2017-Nov-17 04:30N 52°15' W 006°20'0 0.1
2017-Nov-17 04:00N 52°15' W 006°20'611.4
2017-Nov-17 03:30N 52°14' W 006°11'815.4
2017-Nov-17 03:00N 52°14' W 005°59'713.7
2017-Nov-17 02:30N 52°10' W 005°49'5 9.5
2017-Nov-17 02:00N 52°08' W 005°42'13 1.8
2017-Nov-16 18:55N 52°12' W 006°02'717.7
2017-Nov-16 18:31N 52°14' W 006°14'4 8.1
2017-Nov-16 18:00N 52°15' W 006°20'0 0.0
2017-Nov-16 17:30N 52°15' W 006°20'0 0.0
2017-Nov-16 17:00N 52°15' W 006°20'0 0.1
2017-Nov-16 16:30N 52°15' W 006°20'611.9
2017-Nov-16 16:00N 52°14' W 006°11'816.8
2017-Nov-16 15:31N 52°12' W 005°58'917.0
2017-Nov-16 15:00N 52°10' W 005°44'1 0.2
2017-Nov-16 09:12N 52°09' W 005°46'317.8
2017-Nov-16 09:01N 52°11' W 005°51'917.7
2017-Nov-16 08:30N 52°13' W 006°05'917.5
2017-Nov-16 08:01N 52°16' W 006°19'1 1.8
2017-Nov-16 07:30N 52°15' W 006°20'0 0.0
2017-Nov-16 07:00N 52°15' W 006°20'0 0.0
2017-Nov-16 06:30N 52°15' W 006°20'0 0.0
2017-Nov-16 06:00N 52°15' W 006°20'0 0.0
2017-Nov-16 05:30N 52°15' W 006°20'0 0.0
2017-Nov-16 05:00N 52°15' W 006°20'0 0.0
2017-Nov-16 04:31N 52°15' W 006°20'0 0.1
2017-Nov-16 04:00N 52°15' W 006°20'611.5
2017-Nov-16 03:30N 52°14' W 006°11'714.2
2017-Nov-16 03:00N 52°12' W 006°00'713.3
2017-Nov-16 02:30N 52°10' W 005°50'1 2.0
2017-Nov-16 02:00N 52°11' W 005°50'3 0.4
2017-Nov-15 19:23N 52°10' W 005°45'718.3
2017-Nov-15 19:00N 52°11' W 005°56'918.3
2017-Nov-15 18:31N 52°14' W 006°11'612.1
2017-Nov-15 18:00N 52°15' W 006°20'0 0.0
2017-Nov-15 17:30N 52°15' W 006°20'0 0.0
2017-Nov-15 17:00N 52°15' W 006°20'0 0.0
2017-Nov-15 16:30N 52°15' W 006°20'510.2
2017-Nov-15 16:00N 52°14' W 006°12'816.8
2017-Nov-15 15:30N 52°12' W 005°59'917.4
2017-Nov-15 15:00N 52°10' W 005°45'6 1.0
2017-Nov-15 08:57N 52°11' W 005°54'817.6
2017-Nov-15 08:30N 52°13' W 006°07'816.8
2017-Nov-15 08:00N 52°16' W 006°20'0 0.8
2017-Nov-15 07:30N 52°15' W 006°20'0 0.0
2017-Nov-15 07:00N 52°15' W 006°20'0 0.0
2017-Nov-15 06:30N 52°15' W 006°20'0 0.0
2017-Nov-15 06:00N 52°15' W 006°20'0 0.0
2017-Nov-15 05:30N 52°15' W 006°20'0 0.0
2017-Nov-15 05:00N 52°15' W 006°20'0 0.0
2017-Nov-15 04:30N 52°15' W 006°20'0 0.0
2017-Nov-15 04:00N 52°15' W 006°20'4 7.5
2017-Nov-15 03:30N 52°14' W 006°14'714.0
2017-Nov-15 03:00N 52°13' W 006°03'714.0
2017-Nov-15 02:30N 52°12' W 005°52'714.1
2017-Nov-15 02:00N 52°11' W 005°40'7 1.0
2017-Nov-14 19:24N 52°10' W 005°51'717.8
2017-Nov-14 19:00N 52°12' W 006°02'917.6
2017-Nov-14 18:30N 52°15' W 006°16'3 5.3
2017-Nov-14 18:00N 52°15' W 006°20'0 0.0
2017-Nov-14 17:31N 52°15' W 006°20'0 0.0
2017-Nov-14 17:01N 52°15' W 006°20'0 0.9
2017-Nov-14 16:31N 52°16' W 006°20'815.7
2017-Nov-14 16:01N 52°14' W 006°07'816.1
2017-Nov-14 15:31N 52°14' W 005°54'2 0.3
2017-Nov-14 09:00N 52°11' W 005°54'816.7
2017-Nov-14 08:30N 52°13' W 006°07'816.0
2017-Nov-14 08:00N 52°16' W 006°20'0 0.7
2017-Nov-14 07:30N 52°15' W 006°20'0 0.0
2017-Nov-14 07:00N 52°15' W 006°20'0 0.0
2017-Nov-14 06:30N 52°15' W 006°20'0 0.0
2017-Nov-14 06:00N 52°15' W 006°20'0 0.0
2017-Nov-14 05:30N 52°15' W 006°20'0 0.0
2017-Nov-14 05:00N 52°15' W 006°20'0 0.0
2017-Nov-14 04:30N 52°15' W 006°20'0 0.0
2017-Nov-14 04:00N 52°15' W 006°20'5 9.2
2017-Nov-14 03:30N 52°14' W 006°13'714.3
2017-Nov-14 03:00N 52°12' W 006°02'612.5
2017-Nov-14 02:30N 52°11' W 005°52'612.6
2017-Nov-14 02:00N 52°10' W 005°42'0 0.0
2017-Nov-13 02:00N 52°09' W 005°41'  
Track history (hours):
 
Tides and Currents Weather Stations Pressure Air Temp Water Temp Dewpoint Dewpoint Depression Visibility Wind Speed Wind Dir Waves Ship Positions

Stena Europe

Operator: Stena Line

Last reported at 2017-Nov-22 22:02 UTC. Time now 2017-Nov-23 00:22 UTC.
Position N 52°12' W 005°59'.

Length 149 m; draft 6 m.

Type: Passenger vessel. MMSI: 235004539.

Date/timePositionNaut miles runAvg speedWind from/ knotsBaromVisibWave heightAir tempDewpointWater temp
2017-Nov-22 22:02N 52°12' W 005°59'016.3
2017-Nov-22 22:00N 52°12' W 005°60'816.0
2017-Nov-22 21:30N 52°14' W 006°12'510.0
2017-Nov-22 21:00N 52°15' W 006°20'0 0.0
2017-Nov-22 20:31N 52°15' W 006°20'0 0.0
2017-Nov-22 20:01N 52°15' W 006°20'0 0.0
2017-Nov-22 19:31N 52°15' W 006°20'  
2017-Nov-19 19:33N 52°09' W 005°37'218.0
2017-Nov-19 19:28N 52°10' W 005°39'818.0
2017-Nov-19 19:00N 52°10' W 005°52'918.2
2017-Nov-19 18:31N 52°13' W 006°07'817.0
2017-Nov-19 18:00N 52°16' W 006°20'0 0.8
2017-Nov-19 17:31N 52°15' W 006°20'0 0.0
2017-Nov-19 17:01N 52°15' W 006°20'0 0.0
2017-Nov-19 16:30N 52°15' W 006°20'1 2.7
2017-Nov-19 16:01N 52°15' W 006°18'917.4
2017-Nov-19 15:31N 52°13' W 006°05'918.1
2017-Nov-19 15:01N 52°10' W 005°50'1 0.2
2017-Nov-19 09:07N 52°10' W 005°48'218.2
2017-Nov-19 08:59N 52°10' W 005°52'918.2
2017-Nov-19 08:30N 52°13' W 006°06'917.2
2017-Nov-19 08:00N 52°16' W 006°19'1 1.8
2017-Nov-19 07:30N 52°15' W 006°20'0 0.0
2017-Nov-19 07:00N 52°15' W 006°20'0 0.0
2017-Nov-19 06:31N 52°15' W 006°20'0 0.0
2017-Nov-19 06:00N 52°15' W 006°20'0 0.0
2017-Nov-19 05:30N 52°15' W 006°20'0 0.0
2017-Nov-19 05:00N 52°15' W 006°20'0 0.0
2017-Nov-19 04:30N 52°15' W 006°20'0 0.1
2017-Nov-19 04:01N 52°15' W 006°20'510.4
2017-Nov-19 03:30N 52°14' W 006°12'714.8
2017-Nov-19 03:00N 52°12' W 006°01'714.1
2017-Nov-19 02:30N 52°12' W 005°49'713.1
2017-Nov-19 01:58N 52°09' W 005°39'1 1.4
2017-Nov-19 01:30N 52°09' W 005°40'2 0.4
2017-Nov-18 19:42N 52°08' W 005°37'317.1
2017-Nov-18 19:30N 52°09' W 005°41'917.4
2017-Nov-18 19:00N 52°11' W 005°55'917.2
2017-Nov-18 18:30N 52°13' W 006°09'714.6
2017-Nov-18 18:00N 52°15' W 006°20'0 0.2
2017-Nov-18 17:30N 52°15' W 006°20'0 0.0
2017-Nov-18 17:00N 52°15' W 006°20'0 0.0
2017-Nov-18 16:30N 52°15' W 006°20'2 4.6
2017-Nov-18 16:01N 52°15' W 006°17'917.2
2017-Nov-18 15:31N 52°13' W 006°03'917.7
2017-Nov-18 15:01N 52°11' W 005°49'5 0.8
2017-Nov-18 08:55N 52°11' W 005°56'717.5
2017-Nov-18 08:30N 52°13' W 006°08'816.3
2017-Nov-18 08:01N 52°16' W 006°20'0 0.6
2017-Nov-18 07:30N 52°15' W 006°20'0 0.0
2017-Nov-18 07:00N 52°15' W 006°20'0 0.0
2017-Nov-18 06:30N 52°15' W 006°20'0 0.0
2017-Nov-18 06:00N 52°15' W 006°20'0 0.0
2017-Nov-18 05:30N 52°15' W 006°20'0 0.0
2017-Nov-18 05:00N 52°15' W 006°20'0 0.0
2017-Nov-18 04:30N 52°15' W 006°20'0 0.2
2017-Nov-18 04:00N 52°15' W 006°20'612.0
2017-Nov-18 03:30N 52°14' W 006°11'714.4
2017-Nov-18 03:00N 52°11' W 005°60'713.4
2017-Nov-18 02:30N 52°09' W 005°50'2 4.6
2017-Nov-18 02:00N 52°11' W 005°52'714.2
2017-Nov-18 01:30N 52°09' W 005°41'7 1.1
2017-Nov-17 19:07N 52°10' W 005°52'217.7
2017-Nov-17 19:00N 52°11' W 005°55'917.7
2017-Nov-17 18:30N 52°13' W 006°09'714.3
2017-Nov-17 18:00N 52°15' W 006°20'0 0.0
2017-Nov-17 17:30N 52°15' W 006°20'0 0.0
2017-Nov-17 17:00N 52°15' W 006°20'0 0.0
2017-Nov-17 16:30N 52°15' W 006°20'4 7.2
2017-Nov-17 16:00N 52°14' W 006°15'917.1
2017-Nov-17 15:30N 52°12' W 006°01'917.3
2017-Nov-17 15:00N 52°10' W 005°47'0 0.1
2017-Nov-17 09:09N 52°10' W 005°48'917.9
2017-Nov-17 08:39N 52°12' W 006°02'317.8
2017-Nov-17 08:31N 52°13' W 006°05'917.3
2017-Nov-17 08:00N 52°16' W 006°19'1 1.7
2017-Nov-17 07:30N 52°15' W 006°20'0 0.0
2017-Nov-17 07:00N 52°15' W 006°20'0 0.0
2017-Nov-17 06:30N 52°15' W 006°20'0 0.0
2017-Nov-17 06:00N 52°15' W 006°20'0 0.0
2017-Nov-17 05:30N 52°15' W 006°20'0 0.0
2017-Nov-17 05:00N 52°15' W 006°20'0 0.0
2017-Nov-17 04:30N 52°15' W 006°20'0 0.1
2017-Nov-17 04:00N 52°15' W 006°20'611.4
2017-Nov-17 03:30N 52°14' W 006°11'815.4
2017-Nov-17 03:00N 52°14' W 005°59'713.7
2017-Nov-17 02:30N 52°10' W 005°49'5 9.5
2017-Nov-17 02:00N 52°08' W 005°42'13 1.8
2017-Nov-16 18:55N 52°12' W 006°02'717.7
2017-Nov-16 18:31N 52°14' W 006°14'4 8.1
2017-Nov-16 18:00N 52°15' W 006°20'0 0.0
2017-Nov-16 17:30N 52°15' W 006°20'0 0.0
2017-Nov-16 17:00N 52°15' W 006°20'0 0.1
2017-Nov-16 16:30N 52°15' W 006°20'611.9
2017-Nov-16 16:00N 52°14' W 006°11'816.8
2017-Nov-16 15:31N 52°12' W 005°58'917.0
2017-Nov-16 15:00N 52°10' W 005°44'1 0.2
2017-Nov-16 09:12N 52°09' W 005°46'317.8
2017-Nov-16 09:01N 52°11' W 005°51'917.7
2017-Nov-16 08:30N 52°13' W 006°05'917.5
2017-Nov-16 08:01N 52°16' W 006°19'1 1.8
2017-Nov-16 07:30N 52°15' W 006°20'0 0.0
2017-Nov-16 07:00N 52°15' W 006°20'0 0.0
2017-Nov-16 06:30N 52°15' W 006°20'0 0.0
2017-Nov-16 06:00N 52°15' W 006°20'0 0.0
2017-Nov-16 05:30N 52°15' W 006°20'0 0.0
2017-Nov-16 05:00N 52°15' W 006°20'0 0.0
2017-Nov-16 04:31N 52°15' W 006°20'0 0.1
2017-Nov-16 04:00N 52°15' W 006°20'611.5
2017-Nov-16 03:30N 52°14' W 006°11'714.2
2017-Nov-16 03:00N 52°12' W 006°00'713.3
2017-Nov-16 02:30N 52°10' W 005°50'1 2.0
2017-Nov-16 02:00N 52°11' W 005°50'3 0.4
2017-Nov-15 19:23N 52°10' W 005°45'718.3
2017-Nov-15 19:00N 52°11' W 005°56'918.3
2017-Nov-15 18:31N 52°14' W 006°11'612.1
2017-Nov-15 18:00N 52°15' W 006°20'0 0.0
2017-Nov-15 17:30N 52°15' W 006°20'0 0.0
2017-Nov-15 17:00N 52°15' W 006°20'0 0.0
2017-Nov-15 16:30N 52°15' W 006°20'510.2
2017-Nov-15 16:00N 52°14' W 006°12'816.8
2017-Nov-15 15:30N 52°12' W 005°59'917.4
2017-Nov-15 15:00N 52°10' W 005°45'6 1.0
2017-Nov-15 08:57N 52°11' W 005°54'817.6
2017-Nov-15 08:30N 52°13' W 006°07'816.8
2017-Nov-15 08:00N 52°16' W 006°20'0 0.8
2017-Nov-15 07:30N 52°15' W 006°20'0 0.0
2017-Nov-15 07:00N 52°15' W 006°20'0 0.0
2017-Nov-15 06:30N 52°15' W 006°20'0 0.0
2017-Nov-15 06:00N 52°15' W 006°20'0 0.0
2017-Nov-15 05:30N 52°15' W 006°20'0 0.0
2017-Nov-15 05:00N 52°15' W 006°20'0 0.0
2017-Nov-15 04:30N 52°15' W 006°20'0 0.0
2017-Nov-15 04:00N 52°15' W 006°20'4 7.5
2017-Nov-15 03:30N 52°14' W 006°14'714.0
2017-Nov-15 03:00N 52°13' W 006°03'714.0
2017-Nov-15 02:30N 52°12' W 005°52'714.1
2017-Nov-15 02:00N 52°11' W 005°40'7 1.0
2017-Nov-14 19:24N 52°10' W 005°51'717.8
2017-Nov-14 19:00N 52°12' W 006°02'917.6
2017-Nov-14 18:30N 52°15' W 006°16'3 5.3
2017-Nov-14 18:00N 52°15' W 006°20'0 0.0
2017-Nov-14 17:31N 52°15' W 006°20'0 0.0
2017-Nov-14 17:01N 52°15' W 006°20'0 0.9
2017-Nov-14 16:31N 52°16' W 006°20'815.7
2017-Nov-14 16:01N 52°14' W 006°07'816.1
2017-Nov-14 15:31N 52°14' W 005°54'2 0.3
2017-Nov-14 09:00N 52°11' W 005°54'816.7
2017-Nov-14 08:30N 52°13' W 006°07'816.0
2017-Nov-14 08:00N 52°16' W 006°20'0 0.7
2017-Nov-14 07:30N 52°15' W 006°20'0 0.0
2017-Nov-14 07:00N 52°15' W 006°20'0 0.0
2017-Nov-14 06:30N 52°15' W 006°20'0 0.0
2017-Nov-14 06:00N 52°15' W 006°20'0 0.0
2017-Nov-14 05:30N 52°15' W 006°20'0 0.0
2017-Nov-14 05:00N 52°15' W 006°20'0 0.0
2017-Nov-14 04:30N 52°15' W 006°20'0 0.0
2017-Nov-14 04:00N 52°15' W 006°20'5 9.2
2017-Nov-14 03:30N 52°14' W 006°13'714.3
2017-Nov-14 03:00N 52°12' W 006°02'612.5
2017-Nov-14 02:30N 52°11' W 005°52'612.6
2017-Nov-14 02:00N 52°10' W 005°42'0 0.0
2017-Nov-13 02:00N 52°09' W 005°41'  

Dump ship's entire track history